sensor_id;sensor_type;location;lat;lon;timestamp;temperature;humidity
71128;SHT30;59249;59.736;30.568;2022-08-20T00:00:05;20.60;69.30
71128;SHT30;59249;59.736;30.568;2022-08-20T00:02:41;20.53;69.80
71128;SHT30;59249;59.736;30.568;2022-08-20T00:05:11;20.47;70.41
71128;SHT30;59249;59.736;30.568;2022-08-20T00:07:41;20.40;70.42
71128;SHT30;59249;59.736;30.568;2022-08-20T00:10:09;20.41;70.63
71128;SHT30;59249;59.736;30.568;2022-08-20T00:12:44;20.31;70.64
71128;SHT30;59249;59.736;30.568;2022-08-20T00:15:16;20.28;71.03
71128;SHT30;59249;59.736;30.568;2022-08-20T00:17:51;20.21;71.02
71128;SHT30;59249;59.736;30.568;2022-08-20T00:20:25;20.17;71.27
71128;SHT30;59249;59.736;30.568;2022-08-20T00:22:56;20.08;71.59
71128;SHT30;59249;59.736;30.568;2022-08-20T00:25:26;20.07;71.77
71128;SHT30;59249;59.736;30.568;2022-08-20T00:28:01;20.01;71.97
71128;SHT30;59249;59.736;30.568;2022-08-20T00:30:30;19.95;72.21
71128;SHT30;59249;59.736;30.568;2022-08-20T00:33:11;19.99;72.35
71128;SHT30;59249;59.736;30.568;2022-08-20T00:35:43;19.97;72.14
71128;SHT30;59249;59.736;30.568;2022-08-20T00:38:13;19.95;72.44
71128;SHT30;59249;59.736;30.568;2022-08-20T00:40:47;19.87;72.50
71128;SHT30;59249;59.736;30.568;2022-08-20T00:43:30;19.86;72.91
71128;SHT30;59249;59.736;30.568;2022-08-20T00:46:04;19.89;72.89
71128;SHT30;59249;59.736;30.568;2022-08-20T00:48:43;19.87;72.93
71128;SHT30;59249;59.736;30.568;2022-08-20T00:51:32;19.82;73.01
71128;SHT30;59249;59.736;30.568;2022-08-20T00:54:14;19.79;73.35
71128;SHT30;59249;59.736;30.568;2022-08-20T00:56:51;19.76;73.27
71128;SHT30;59249;59.736;30.568;2022-08-20T00:59:32;19.77;73.56
71128;SHT30;59249;59.736;30.568;2022-08-20T01:02:07;19.75;73.35
71128;SHT30;59249;59.736;30.568;2022-08-20T01:04:38;19.74;73.86
71128;SHT30;59249;59.736;30.568;2022-08-20T01:07:10;19.75;73.46
71128;SHT30;59249;59.736;30.568;2022-08-20T01:09:39;19.68;73.85
71128;SHT30;59249;59.736;30.568;2022-08-20T01:12:28;19.69;73.74
71128;SHT30;59249;59.736;30.568;2022-08-20T01:15:01;19.62;73.86
71128;SHT30;59249;59.736;30.568;2022-08-20T01:17:35;19.65;73.88
71128;SHT30;59249;59.736;30.568;2022-08-20T01:20:11;19.58;73.93
71128;SHT30;59249;59.736;30.568;2022-08-20T01:22:51;19.61;73.99
71128;SHT30;59249;59.736;30.568;2022-08-20T01:25:45;19.45;74.00
71128;SHT30;59249;59.736;30.568;2022-08-20T01:28:20;19.51;74.09
71128;SHT30;59249;59.736;30.568;2022-08-20T01:30:51;19.46;74.30
71128;SHT30;59249;59.736;30.568;2022-08-20T01:33:22;19.38;74.21
71128;SHT30;59249;59.736;30.568;2022-08-20T01:35:52;19.35;74.44
71128;SHT30;59249;59.736;30.568;2022-08-20T01:38:22;19.31;74.53
71128;SHT30;59249;59.736;30.568;2022-08-20T01:41:25;19.31;74.50
71128;SHT30;59249;59.736;30.568;2022-08-20T01:43:57;19.28;74.57
71128;SHT30;59249;59.736;30.568;2022-08-20T01:46:29;19.28;74.48
71128;SHT30;59249;59.736;30.568;2022-08-20T01:49:09;19.17;74.64
71128;SHT30;59249;59.736;30.568;2022-08-20T01:51:40;19.16;74.81
71128;SHT30;59249;59.736;30.568;2022-08-20T01:54:12;19.15;74.83
71128;SHT30;59249;59.736;30.568;2022-08-20T01:56:56;19.16;75.08
71128;SHT30;59249;59.736;30.568;2022-08-20T01:59:30;19.20;74.84
71128;SHT30;59249;59.736;30.568;2022-08-20T02:02:05;19.19;74.90
71128;SHT30;59249;59.736;30.568;2022-08-20T02:04:35;19.18;74.67
71128;SHT30;59249;59.736;30.568;2022-08-20T02:07:07;19.17;74.77
71128;SHT30;59249;59.736;30.568;2022-08-20T02:09:40;19.11;75.30
71128;SHT30;59249;59.736;30.568;2022-08-20T02:12:12;19.11;75.17
71128;SHT30;59249;59.736;30.568;2022-08-20T02:14:45;19.07;75.25
71128;SHT30;59249;59.736;30.568;2022-08-20T02:17:15;19.02;75.37
71128;SHT30;59249;59.736;30.568;2022-08-20T02:19:49;19.02;75.35
71128;SHT30;59249;59.736;30.568;2022-08-20T02:22:24;19.02;75.25
71128;SHT30;59249;59.736;30.568;2022-08-20T02:24:53;18.96;75.43
71128;SHT30;59249;59.736;30.568;2022-08-20T02:27:23;18.94;75.54
71128;SHT30;59249;59.736;30.568;2022-08-20T02:29:52;18.87;75.56
71128;SHT30;59249;59.736;30.568;2022-08-20T02:32:21;18.91;75.62
71128;SHT30;59249;59.736;30.568;2022-08-20T02:35:01;18.90;75.42
71128;SHT30;59249;59.736;30.568;2022-08-20T02:37:30;18.88;75.25
71128;SHT30;59249;59.736;30.568;2022-08-20T02:39:59;18.89;75.51
71128;SHT30;59249;59.736;30.568;2022-08-20T02:42:30;18.86;75.46
71128;SHT30;59249;59.736;30.568;2022-08-20T02:44:59;18.86;75.49
71128;SHT30;59249;59.736;30.568;2022-08-20T02:47:29;18.84;75.56
71128;SHT30;59249;59.736;30.568;2022-08-20T02:49:58;18.83;75.56
71128;SHT30;59249;59.736;30.568;2022-08-20T02:52:27;18.83;75.51
71128;SHT30;59249;59.736;30.568;2022-08-20T02:54:56;18.94;75.32
71128;SHT30;59249;59.736;30.568;2022-08-20T02:57:25;18.98;75.32
71128;SHT30;59249;59.736;30.568;2022-08-20T02:59:57;19.05;75.13
71128;SHT30;59249;59.736;30.568;2022-08-20T03:02:27;19.18;74.58
71128;SHT30;59249;59.736;30.568;2022-08-20T03:04:56;19.32;74.24
71128;SHT30;59249;59.736;30.568;2022-08-20T03:07:25;19.42;73.93
71128;SHT30;59249;59.736;30.568;2022-08-20T03:09:55;19.48;73.76
71128;SHT30;59249;59.736;30.568;2022-08-20T03:12:24;19.45;73.72
71128;SHT30;59249;59.736;30.568;2022-08-20T03:14:52;19.28;73.81
71128;SHT30;59249;59.736;30.568;2022-08-20T03:17:23;19.19;73.99
71128;SHT30;59249;59.736;30.568;2022-08-20T03:19:52;19.18;74.03
71128;SHT30;59249;59.736;30.568;2022-08-20T03:22:20;19.10;74.40
71128;SHT30;59249;59.736;30.568;2022-08-20T03:24:49;19.03;74.60
71128;SHT30;59249;59.736;30.568;2022-08-20T03:27:20;18.95;74.61
71128;SHT30;59249;59.736;30.568;2022-08-20T03:29:54;18.99;74.62
71128;SHT30;59249;59.736;30.568;2022-08-20T03:32:24;18.97;74.71
71128;SHT30;59249;59.736;30.568;2022-08-20T03:34:53;18.98;74.80
71128;SHT30;59249;59.736;30.568;2022-08-20T03:37:22;19.06;74.72
71128;SHT30;59249;59.736;30.568;2022-08-20T03:39:51;19.08;74.64
71128;SHT30;59249;59.736;30.568;2022-08-20T03:42:20;19.05;74.52
71128;SHT30;59249;59.736;30.568;2022-08-20T03:44:49;19.05;74.47
71128;SHT30;59249;59.736;30.568;2022-08-20T03:47:27;19.02;74.46
71128;SHT30;59249;59.736;30.568;2022-08-20T03:49:57;19.08;74.28
71128;SHT30;59249;59.736;30.568;2022-08-20T03:52:27;19.06;74.25
71128;SHT30;59249;59.736;30.568;2022-08-20T03:54:56;19.07;74.26
71128;SHT30;59249;59.736;30.568;2022-08-20T03:57:24;19.09;74.22
71128;SHT30;59249;59.736;30.568;2022-08-20T03:59:54;19.12;73.69
71128;SHT30;59249;59.736;30.568;2022-08-20T04:02:26;19.23;73.79
71128;SHT30;59249;59.736;30.568;2022-08-20T04:04:55;19.20;73.50
71128;SHT30;59249;59.736;30.568;2022-08-20T04:07:24;19.19;73.52
71128;SHT30;59249;59.736;30.568;2022-08-20T04:09:55;19.23;73.76
71128;SHT30;59249;59.736;30.568;2022-08-20T04:12:24;19.28;73.33
71128;SHT30;59249;59.736;30.568;2022-08-20T04:14:53;19.28;73.52
71128;SHT30;59249;59.736;30.568;2022-08-20T04:17:23;19.28;73.40
71128;SHT30;59249;59.736;30.568;2022-08-20T04:19:53;19.30;73.40
71128;SHT30;59249;59.736;30.568;2022-08-20T04:22:21;19.28;73.65
71128;SHT30;59249;59.736;30.568;2022-08-20T04:24:50;19.32;73.51
71128;SHT30;59249;59.736;30.568;2022-08-20T04:27:19;19.35;73.41
71128;SHT30;59249;59.736;30.568;2022-08-20T04:29:48;19.44;73.33
71128;SHT30;59249;59.736;30.568;2022-08-20T04:32:17;19.55;73.33
71128;SHT30;59249;59.736;30.568;2022-08-20T04:34:47;19.59;73.05
71128;SHT30;59249;59.736;30.568;2022-08-20T04:37:26;19.66;72.86
71128;SHT30;59249;59.736;30.568;2022-08-20T04:39:55;19.68;72.71
71128;SHT30;59249;59.736;30.568;2022-08-20T04:42:41;19.70;72.74
71128;SHT30;59249;59.736;30.568;2022-08-20T04:45:11;19.79;72.55
71128;SHT30;59249;59.736;30.568;2022-08-20T04:47:40;19.85;72.40
71128;SHT30;59249;59.736;30.568;2022-08-20T04:50:11;19.88;72.54
71128;SHT30;59249;59.736;30.568;2022-08-20T04:52:41;20.03;72.35
71128;SHT30;59249;59.736;30.568;2022-08-20T04:55:10;20.08;72.12
71128;SHT30;59249;59.736;30.568;2022-08-20T04:57:39;20.17;72.03
71128;SHT30;59249;59.736;30.568;2022-08-20T05:00:14;20.21;71.94
71128;SHT30;59249;59.736;30.568;2022-08-20T05:02:43;20.26;71.79
71128;SHT30;59249;59.736;30.568;2022-08-20T05:05:12;20.25;71.97
71128;SHT30;59249;59.736;30.568;2022-08-20T05:07:44;20.33;72.01
71128;SHT30;59249;59.736;30.568;2022-08-20T05:10:16;20.42;71.81
71128;SHT30;59249;59.736;30.568;2022-08-20T05:12:45;20.49;71.47
71128;SHT30;59249;59.736;30.568;2022-08-20T05:15:23;20.52;71.28
71128;SHT30;59249;59.736;30.568;2022-08-20T05:17:55;20.60;71.04
71128;SHT30;59249;59.736;30.568;2022-08-20T05:20:29;20.67;71.15
71128;SHT30;59249;59.736;30.568;2022-08-20T05:23:01;20.80;70.57
71128;SHT30;59249;59.736;30.568;2022-08-20T05:25:30;20.86;70.39
71128;SHT30;59249;59.736;30.568;2022-08-20T05:28:03;20.95;70.10
71128;SHT30;59249;59.736;30.568;2022-08-20T05:30:37;21.04;69.89
71128;SHT30;59249;59.736;30.568;2022-08-20T05:33:10;21.08;69.56
71128;SHT30;59249;59.736;30.568;2022-08-20T05:35:40;21.15;69.70
71128;SHT30;59249;59.736;30.568;2022-08-20T05:38:13;21.17;69.57
71128;SHT30;59249;59.736;30.568;2022-08-20T05:40:44;21.30;69.35
71128;SHT30;59249;59.736;30.568;2022-08-20T05:43:14;21.39;69.23
71128;SHT30;59249;59.736;30.568;2022-08-20T05:45:47;21.45;68.87
71128;SHT30;59249;59.736;30.568;2022-08-20T05:48:24;21.47;68.91
71128;SHT30;59249;59.736;30.568;2022-08-20T05:50:53;21.52;68.51
71128;SHT30;59249;59.736;30.568;2022-08-20T05:53:24;21.60;68.38
71128;SHT30;59249;59.736;30.568;2022-08-20T05:55:53;21.61;68.09
71128;SHT30;59249;59.736;30.568;2022-08-20T05:58:25;21.75;68.15
71128;SHT30;59249;59.736;30.568;2022-08-20T06:00:54;21.83;67.56
71128;SHT30;59249;59.736;30.568;2022-08-20T06:03:24;21.82;67.36
71128;SHT30;59249;59.736;30.568;2022-08-20T06:06:10;21.88;66.86
71128;SHT30;59249;59.736;30.568;2022-08-20T06:09:00;21.97;66.56
71128;SHT30;59249;59.736;30.568;2022-08-20T06:11:29;22.10;66.46
71128;SHT30;59249;59.736;30.568;2022-08-20T06:14:04;22.20;66.06
71128;SHT30;59249;59.736;30.568;2022-08-20T06:16:33;22.26;66.07
71128;SHT30;59249;59.736;30.568;2022-08-20T06:19:04;22.31;65.88
71128;SHT30;59249;59.736;30.568;2022-08-20T06:21:38;22.43;65.71
71128;SHT30;59249;59.736;30.568;2022-08-20T06:24:09;22.47;65.36
71128;SHT30;59249;59.736;30.568;2022-08-20T06:26:37;22.56;65.36
71128;SHT30;59249;59.736;30.568;2022-08-20T06:29:06;22.62;64.98
71128;SHT30;59249;59.736;30.568;2022-08-20T06:31:35;22.61;64.91
71128;SHT30;59249;59.736;30.568;2022-08-20T06:34:06;22.73;64.85
71128;SHT30;59249;59.736;30.568;2022-08-20T06:36:35;22.82;64.61
71128;SHT30;59249;59.736;30.568;2022-08-20T06:39:03;22.85;64.04
71128;SHT30;59249;59.736;30.568;2022-08-20T06:41:34;22.96;64.03
71128;SHT30;59249;59.736;30.568;2022-08-20T06:44:04;23.02;63.97
71128;SHT30;59249;59.736;30.568;2022-08-20T06:46:34;23.08;63.57
71128;SHT30;59249;59.736;30.568;2022-08-20T06:49:04;23.13;63.12
71128;SHT30;59249;59.736;30.568;2022-08-20T06:51:34;23.10;63.27
71128;SHT30;59249;59.736;30.568;2022-08-20T06:54:06;23.18;63.57
71128;SHT30;59249;59.736;30.568;2022-08-20T06:56:36;23.29;62.82
71128;SHT30;59249;59.736;30.568;2022-08-20T06:59:05;23.30;62.74
71128;SHT30;59249;59.736;30.568;2022-08-20T07:01:34;23.34;62.31
71128;SHT30;59249;59.736;30.568;2022-08-20T07:04:03;23.41;62.39
71128;SHT30;59249;59.736;30.568;2022-08-20T07:06:33;23.45;61.81
71128;SHT30;59249;59.736;30.568;2022-08-20T07:09:02;23.47;62.23
71128;SHT30;59249;59.736;30.568;2022-08-20T07:11:31;23.48;61.81
71128;SHT30;59249;59.736;30.568;2022-08-20T07:14:03;23.53;61.44
71128;SHT30;59249;59.736;30.568;2022-08-20T07:16:32;23.55;61.78
71128;SHT30;59249;59.736;30.568;2022-08-20T07:19:01;23.54;60.89
71128;SHT30;59249;59.736;30.568;2022-08-20T07:21:30;23.62;60.73
71128;SHT30;59249;59.736;30.568;2022-08-20T07:23:59;23.69;61.14
71128;SHT30;59249;59.736;30.568;2022-08-20T07:26:28;23.75;61.17
71128;SHT30;59249;59.736;30.568;2022-08-20T07:28:57;23.85;61.10
71128;SHT30;59249;59.736;30.568;2022-08-20T07:31:28;24.01;60.84
71128;SHT30;59249;59.736;30.568;2022-08-20T07:34:14;24.04;60.62
71128;SHT30;59249;59.736;30.568;2022-08-20T07:36:45;24.12;60.54
71128;SHT30;59249;59.736;30.568;2022-08-20T07:39:16;24.16;60.87
71128;SHT30;59249;59.736;30.568;2022-08-20T07:41:46;24.26;60.52
71128;SHT30;59249;59.736;30.568;2022-08-20T07:44:29;24.30;60.64
71128;SHT30;59249;59.736;30.568;2022-08-20T07:46:59;24.39;60.26
71128;SHT30;59249;59.736;30.568;2022-08-20T07:49:36;24.47;59.54
71128;SHT30;59249;59.736;30.568;2022-08-20T07:52:06;24.48;59.28
71128;SHT30;59249;59.736;30.568;2022-08-20T07:54:34;24.59;59.01
71128;SHT30;59249;59.736;30.568;2022-08-20T07:57:10;24.61;58.82
71128;SHT30;59249;59.736;30.568;2022-08-20T07:59:39;24.69;58.97
71128;SHT30;59249;59.736;30.568;2022-08-20T08:02:09;24.70;58.13
71128;SHT30;59249;59.736;30.568;2022-08-20T08:04:38;24.74;57.71
71128;SHT30;59249;59.736;30.568;2022-08-20T08:07:07;24.79;58.22
71128;SHT30;59249;59.736;30.568;2022-08-20T08:09:36;24.87;58.08
71128;SHT30;59249;59.736;30.568;2022-08-20T08:12:06;24.95;57.67
71128;SHT30;59249;59.736;30.568;2022-08-20T08:14:35;24.99;58.04
71128;SHT30;59249;59.736;30.568;2022-08-20T08:17:04;25.07;58.11
71128;SHT30;59249;59.736;30.568;2022-08-20T08:19:41;25.17;57.89
71128;SHT30;59249;59.736;30.568;2022-08-20T08:22:15;25.24;57.41
71128;SHT30;59249;59.736;30.568;2022-08-20T08:24:45;25.29;57.30
71128;SHT30;59249;59.736;30.568;2022-08-20T08:27:23;25.32;57.45
71128;SHT30;59249;59.736;30.568;2022-08-20T08:29:52;25.39;57.31
71128;SHT30;59249;59.736;30.568;2022-08-20T08:32:22;25.53;57.12
71128;SHT30;59249;59.736;30.568;2022-08-20T08:34:52;25.59;56.56
71128;SHT30;59249;59.736;30.568;2022-08-20T08:37:21;25.62;56.32
71128;SHT30;59249;59.736;30.568;2022-08-20T08:39:54;25.68;55.54
71128;SHT30;59249;59.736;30.568;2022-08-20T08:42:35;25.80;55.87
71128;SHT30;59249;59.736;30.568;2022-08-20T08:45:12;25.85;55.77
71128;SHT30;59249;59.736;30.568;2022-08-20T08:47:43;25.90;55.16
71128;SHT30;59249;59.736;30.568;2022-08-20T08:50:21;25.92;54.69
71128;SHT30;59249;59.736;30.568;2022-08-20T08:53:21;25.97;55.10
71128;SHT30;59249;59.736;30.568;2022-08-20T08:55:52;26.07;54.74
71128;SHT30;59249;59.736;30.568;2022-08-20T08:58:22;26.10;54.50
71128;SHT30;59249;59.736;30.568;2022-08-20T09:00:51;26.08;54.25
71128;SHT30;59249;59.736;30.568;2022-08-20T09:03:27;26.13;54.31
71128;SHT30;59249;59.736;30.568;2022-08-20T09:06:00;26.24;54.30
71128;SHT30;59249;59.736;30.568;2022-08-20T09:08:35;26.32;54.16
71128;SHT30;59249;59.736;30.568;2022-08-20T09:11:07;26.35;53.81
71128;SHT30;59249;59.736;30.568;2022-08-20T09:13:36;26.41;53.96
71128;SHT30;59249;59.736;30.568;2022-08-20T09:16:05;26.43;52.78
71128;SHT30;59249;59.736;30.568;2022-08-20T09:18:34;26.48;52.94
71128;SHT30;59249;59.736;30.568;2022-08-20T09:21:05;26.53;53.15
71128;SHT30;59249;59.736;30.568;2022-08-20T09:23:34;26.57;52.88
71128;SHT30;59249;59.736;30.568;2022-08-20T09:26:03;26.60;52.51
71128;SHT30;59249;59.736;30.568;2022-08-20T09:28:33;26.68;52.51
71128;SHT30;59249;59.736;30.568;2022-08-20T09:31:04;26.76;52.68
71128;SHT30;59249;59.736;30.568;2022-08-20T09:33:33;26.83;52.19
71128;SHT30;59249;59.736;30.568;2022-08-20T09:36:04;26.89;52.50
71128;SHT30;59249;59.736;30.568;2022-08-20T09:38:53;27.01;52.08
71128;SHT30;59249;59.736;30.568;2022-08-20T09:41:22;27.05;52.10
71128;SHT30;59249;59.736;30.568;2022-08-20T09:43:51;27.12;51.73
71128;SHT30;59249;59.736;30.568;2022-08-20T09:46:20;27.18;52.03
71128;SHT30;59249;59.736;30.568;2022-08-20T09:48:54;27.24;50.99
71128;SHT30;59249;59.736;30.568;2022-08-20T09:51:24;27.28;50.55
71128;SHT30;59249;59.736;30.568;2022-08-20T09:53:53;27.41;50.11
71128;SHT30;59249;59.736;30.568;2022-08-20T09:56:24;27.37;50.07
71128;SHT30;59249;59.736;30.568;2022-08-20T09:58:54;27.47;50.48
71128;SHT30;59249;59.736;30.568;2022-08-20T10:01:29;27.43;49.80
71128;SHT30;59249;59.736;30.568;2022-08-20T10:03:59;27.52;49.74
71128;SHT30;59249;59.736;30.568;2022-08-20T10:06:29;27.55;50.05
71128;SHT30;59249;59.736;30.568;2022-08-20T10:09:04;27.64;49.56
71128;SHT30;59249;59.736;30.568;2022-08-20T10:11:33;27.69;49.62
71128;SHT30;59249;59.736;30.568;2022-08-20T10:14:02;27.67;49.82
71128;SHT30;59249;59.736;30.568;2022-08-20T10:16:31;27.70;49.62
71128;SHT30;59249;59.736;30.568;2022-08-20T10:19:00;27.62;48.79
71128;SHT30;59249;59.736;30.568;2022-08-20T10:21:31;27.71;49.28
71128;SHT30;59249;59.736;30.568;2022-08-20T10:24:05;27.81;49.31
71128;SHT30;59249;59.736;30.568;2022-08-20T10:26:34;27.85;48.80
71128;SHT30;59249;59.736;30.568;2022-08-20T10:29:05;27.97;48.43
71128;SHT30;59249;59.736;30.568;2022-08-20T10:31:33;28.04;48.64
71128;SHT30;59249;59.736;30.568;2022-08-20T10:34:03;28.18;48.93
71128;SHT30;59249;59.736;30.568;2022-08-20T10:36:33;28.15;48.28
71128;SHT30;59249;59.736;30.568;2022-08-20T10:39:02;28.24;48.33
71128;SHT30;59249;59.736;30.568;2022-08-20T10:41:31;28.19;48.03
71128;SHT30;59249;59.736;30.568;2022-08-20T10:44:05;28.25;47.70
71128;SHT30;59249;59.736;30.568;2022-08-20T10:46:34;28.25;47.81
71128;SHT30;59249;59.736;30.568;2022-08-20T10:49:03;28.28;47.90
71128;SHT30;59249;59.736;30.568;2022-08-20T10:51:33;28.34;47.68
71128;SHT30;59249;59.736;30.568;2022-08-20T10:54:02;28.32;47.23
71128;SHT30;59249;59.736;30.568;2022-08-20T10:56:38;28.30;46.67
71128;SHT30;59249;59.736;30.568;2022-08-20T10:59:07;28.28;46.29
71128;SHT30;59249;59.736;30.568;2022-08-20T11:01:36;28.32;46.44
71128;SHT30;59249;59.736;30.568;2022-08-20T11:04:05;28.48;46.52
71128;SHT30;59249;59.736;30.568;2022-08-20T11:06:35;28.49;47.03
71128;SHT30;59249;59.736;30.568;2022-08-20T11:09:04;28.61;47.06
71128;SHT30;59249;59.736;30.568;2022-08-20T11:11:36;28.76;46.41
71128;SHT30;59249;59.736;30.568;2022-08-20T11:14:04;28.78;46.05
71128;SHT30;59249;59.736;30.568;2022-08-20T11:16:35;28.80;46.35
71128;SHT30;59249;59.736;30.568;2022-08-20T11:19:04;28.88;46.42
71128;SHT30;59249;59.736;30.568;2022-08-20T11:21:32;29.07;46.57
71128;SHT30;59249;59.736;30.568;2022-08-20T11:24:03;29.06;46.31
71128;SHT30;59249;59.736;30.568;2022-08-20T11:26:32;29.16;46.15
71128;SHT30;59249;59.736;30.568;2022-08-20T11:29:03;29.15;45.81
71128;SHT30;59249;59.736;30.568;2022-08-20T11:31:32;29.16;46.24
71128;SHT30;59249;59.736;30.568;2022-08-20T11:34:01;29.02;46.02
71128;SHT30;59249;59.736;30.568;2022-08-20T11:36:29;29.09;45.45
71128;SHT30;59249;59.736;30.568;2022-08-20T11:39:02;29.11;45.55
71128;SHT30;59249;59.736;30.568;2022-08-20T11:41:31;29.13;45.20
71128;SHT30;59249;59.736;30.568;2022-08-20T11:44:00;29.16;45.38
71128;SHT30;59249;59.736;30.568;2022-08-20T11:46:48;29.33;45.56
71128;SHT30;59249;59.736;30.568;2022-08-20T11:49:17;29.50;45.81
71128;SHT30;59249;59.736;30.568;2022-08-20T11:51:46;29.70;45.48
71128;SHT30;59249;59.736;30.568;2022-08-20T11:54:18;29.74;45.30
71128;SHT30;59249;59.736;30.568;2022-08-20T11:56:47;29.79;44.57
71128;SHT30;59249;59.736;30.568;2022-08-20T11:59:17;29.84;44.18
71128;SHT30;59249;59.736;30.568;2022-08-20T12:01:47;29.91;43.75
71128;SHT30;59249;59.736;30.568;2022-08-20T12:04:29;29.77;43.87
71128;SHT30;59249;59.736;30.568;2022-08-20T12:07:08;29.74;44.06
71128;SHT30;59249;59.736;30.568;2022-08-20T12:09:41;29.58;43.82
71128;SHT30;59249;59.736;30.568;2022-08-20T12:12:19;29.56;43.72
71128;SHT30;59249;59.736;30.568;2022-08-20T12:14:50;29.46;43.79
71128;SHT30;59249;59.736;30.568;2022-08-20T12:17:22;29.54;44.08
71128;SHT30;59249;59.736;30.568;2022-08-20T12:19:54;29.54;43.89
71128;SHT30;59249;59.736;30.568;2022-08-20T12:22:23;29.60;43.63
71128;SHT30;59249;59.736;30.568;2022-08-20T12:24:54;29.77;43.80
71128;SHT30;59249;59.736;30.568;2022-08-20T12:27:26;29.86;43.23
71128;SHT30;59249;59.736;30.568;2022-08-20T12:29:58;29.96;43.50
71128;SHT30;59249;59.736;30.568;2022-08-20T12:32:30;30.06;43.70
71128;SHT30;59249;59.736;30.568;2022-08-20T12:34:59;30.07;42.98
71128;SHT30;59249;59.736;30.568;2022-08-20T12:37:31;29.91;42.70
71128;SHT30;59249;59.736;30.568;2022-08-20T12:40:06;29.78;42.84
71128;SHT30;59249;59.736;30.568;2022-08-20T12:42:37;29.42;42.67
71128;SHT30;59249;59.736;30.568;2022-08-20T12:45:07;29.49;43.54
71128;SHT30;59249;59.736;30.568;2022-08-20T12:47:39;29.51;43.67
71128;SHT30;59249;59.736;30.568;2022-08-20T12:50:15;29.41;43.27
71128;SHT30;59249;59.736;30.568;2022-08-20T12:52:44;29.30;43.65
71128;SHT30;59249;59.736;30.568;2022-08-20T12:55:18;29.19;43.41
71128;SHT30;59249;59.736;30.568;2022-08-20T12:57:49;29.22;43.23
71128;SHT30;59249;59.736;30.568;2022-08-20T13:00:22;29.29;43.62
71128;SHT30;59249;59.736;30.568;2022-08-20T13:02:54;29.34;43.72
71128;SHT30;59249;59.736;30.568;2022-08-20T13:05:24;29.35;43.39
71128;SHT30;59249;59.736;30.568;2022-08-20T13:07:54;29.42;43.43
71128;SHT30;59249;59.736;30.568;2022-08-20T13:10:28;29.19;43.07
71128;SHT30;59249;59.736;30.568;2022-08-20T13:12:57;29.09;43.49
71128;SHT30;59249;59.736;30.568;2022-08-20T13:15:29;29.06;43.62
71128;SHT30;59249;59.736;30.568;2022-08-20T13:18:01;29.06;43.91
71128;SHT30;59249;59.736;30.568;2022-08-20T13:20:30;29.03;43.35
71128;SHT30;59249;59.736;30.568;2022-08-20T13:23:03;28.98;43.03
71128;SHT30;59249;59.736;30.568;2022-08-20T13:25:33;29.05;43.35
71128;SHT30;59249;59.736;30.568;2022-08-20T13:28:04;29.14;42.80
71128;SHT30;59249;59.736;30.568;2022-08-20T13:30:35;29.18;42.97
71128;SHT30;59249;59.736;30.568;2022-08-20T13:33:05;29.19;42.48
71128;SHT30;59249;59.736;30.568;2022-08-20T13:35:34;29.27;42.52
71128;SHT30;59249;59.736;30.568;2022-08-20T13:38:03;29.15;42.38
71128;SHT30;59249;59.736;30.568;2022-08-20T13:40:34;29.07;42.26
71128;SHT30;59249;59.736;30.568;2022-08-20T13:43:03;28.98;42.28
71128;SHT30;59249;59.736;30.568;2022-08-20T13:45:35;28.90;42.55
71128;SHT30;59249;59.736;30.568;2022-08-20T13:48:06;28.95;42.55
71128;SHT30;59249;59.736;30.568;2022-08-20T13:50:42;29.11;42.41
71128;SHT30;59249;59.736;30.568;2022-08-20T13:53:14;29.19;41.98
71128;SHT30;59249;59.736;30.568;2022-08-20T13:55:46;29.20;41.84
71128;SHT30;59249;59.736;30.568;2022-08-20T13:58:16;29.25;41.89
71128;SHT30;59249;59.736;30.568;2022-08-20T14:00:45;29.30;41.97
71128;SHT30;59249;59.736;30.568;2022-08-20T14:03:15;29.25;41.47
71128;SHT30;59249;59.736;30.568;2022-08-20T14:05:51;29.20;41.01
71128;SHT30;59249;59.736;30.568;2022-08-20T14:08:23;29.11;41.15
71128;SHT30;59249;59.736;30.568;2022-08-20T14:10:54;29.04;41.14
71128;SHT30;59249;59.736;30.568;2022-08-20T14:13:24;29.07;41.14
71128;SHT30;59249;59.736;30.568;2022-08-20T14:15:54;29.13;41.28
71128;SHT30;59249;59.736;30.568;2022-08-20T14:18:23;29.11;41.49
71128;SHT30;59249;59.736;30.568;2022-08-20T14:20:52;29.03;41.10
71128;SHT30;59249;59.736;30.568;2022-08-20T14:23:21;29.00;41.18
71128;SHT30;59249;59.736;30.568;2022-08-20T14:25:50;28.98;41.24
71128;SHT30;59249;59.736;30.568;2022-08-20T14:28:23;29.00;41.49
71128;SHT30;59249;59.736;30.568;2022-08-20T14:30:52;28.98;41.13
71128;SHT30;59249;59.736;30.568;2022-08-20T14:33:22;29.04;40.80
71128;SHT30;59249;59.736;30.568;2022-08-20T14:35:52;29.04;40.63
71128;SHT30;59249;59.736;30.568;2022-08-20T14:38:22;29.15;40.72
71128;SHT30;59249;59.736;30.568;2022-08-20T14:40:51;29.34;40.80
71128;SHT30;59249;59.736;30.568;2022-08-20T14:43:21;29.34;39.90
71128;SHT30;59249;59.736;30.568;2022-08-20T14:45:51;29.48;40.01
71128;SHT30;59249;59.736;30.568;2022-08-20T14:48:20;29.72;40.02
71128;SHT30;59249;59.736;30.568;2022-08-20T14:50:51;29.93;38.80
71128;SHT30;59249;59.736;30.568;2022-08-20T14:53:22;30.09;38.35
71128;SHT30;59249;59.736;30.568;2022-08-20T14:55:51;30.18;38.08
71128;SHT30;59249;59.736;30.568;2022-08-20T14:58:21;30.37;37.87
71128;SHT30;59249;59.736;30.568;2022-08-20T15:00:52;30.50;37.52
71128;SHT30;59249;59.736;30.568;2022-08-20T15:03:21;30.43;37.32
71128;SHT30;59249;59.736;30.568;2022-08-20T15:05:55;30.45;37.13
71128;SHT30;59249;59.736;30.568;2022-08-20T15:08:24;30.53;37.26
71128;SHT30;59249;59.736;30.568;2022-08-20T15:10:55;30.75;37.64
71128;SHT30;59249;59.736;30.568;2022-08-20T15:13:25;30.86;37.24
71128;SHT30;59249;59.736;30.568;2022-08-20T15:15:54;30.94;37.06
71128;SHT30;59249;59.736;30.568;2022-08-20T15:18:23;31.08;36.86
71128;SHT30;59249;59.736;30.568;2022-08-20T15:20:53;30.89;36.92
71128;SHT30;59249;59.736;30.568;2022-08-20T15:23:22;30.93;36.78
71128;SHT30;59249;59.736;30.568;2022-08-20T15:25:51;30.99;36.95
71128;SHT30;59249;59.736;30.568;2022-08-20T15:28:20;31.10;36.73
71128;SHT30;59249;59.736;30.568;2022-08-20T15:30:50;31.35;36.51
71128;SHT30;59249;59.736;30.568;2022-08-20T15:33:19;31.45;36.01
71128;SHT30;59249;59.736;30.568;2022-08-20T15:35:48;31.56;36.16
71128;SHT30;59249;59.736;30.568;2022-08-20T15:38:17;31.63;35.84
71128;SHT30;59249;59.736;30.568;2022-08-20T15:40:46;31.52;35.71